Date,TemperatureHighF,TemperatureAvgF,TemperatureLowF,DewpointHighF,DewpointAvgF,DewpointLowF,HumidityHigh,HumidityAvg,HumidityLow,PressureMaxIn,PressureMinIn,WindSpeedMaxMPH,WindSpeedAvgMPH,GustSpeedMaxMPH,PrecipitationSumIn
2012-12-1,38.0,35.2,33.0,36.0,33.8,29.0,100,95,81,0.00,40.00,4,2,9,0.00
2012-12-2,39.0,33.6,29.0,36.0,30.9,28.0,100,86,69,0.00,40.00,5,2,12,0.00
2012-12-3,31.0,21.9,17.0,28.0,18.8,10.0,100,88,55,0.00,40.00,0,0,0,0.00
2012-12-4,38.0,31.5,20.0,35.0,29.3,16.0,100,92,77,0.00,40.00,3,1,7,0.00
2012-12-5,42.0,36.1,34.0,35.0,32.6,28.0,100,88,64,0.00,40.00,3,1,6,0.00
2012-12-6,36.0,30.4,25.0,34.0,27.5,-99.9,100,92,73,0.00,40.00,5,1,10,0.00
2012-12-7,32.0,24.6,19.0,27.0,18.9,16.0,96,79,65,0.00,40.00,5,2,10,0.00
2012-12-8,28.0,22.9,13.0,22.0,19.2,12.0,100,86,67,0.00,40.00,4,2,11,0.00
2012-12-9,13.0,9.4,4.0,12.0,8.5,3.0,99,96,93,0.00,40.00,2,1,8,0.00
2012-12-10,23.0,19.5,10.0,23.0,17.9,8.0,99,93,88,0.00,40.00,9,3,24,0.00
2012-12-11,27.0,23.0,20.0,24.0,20.6,17.0,100,91,73,0.00,40.00,4,2,11,0.00
2012-12-12,30.0,28.0,24.0,22.0,19.9,17.0,80,72,65,0.00,40.00,5,2,10,0.00
2012-12-13,31.0,26.6,22.0,26.0,20.2,16.0,100,77,62,0.00,40.00,4,1,8,0.00
2012-12-14,33.0,27.7,23.0,29.0,24.4,16.0,100,88,69,0.00,40.00,2,1,6,0.00
2012-12-15,26.0,22.5,19.0,26.0,22.1,17.0,100,98,91,0.00,40.00,2,0,4,0.00
2012-12-16,23.0,19.3,16.0,21.0,18.5,15.0,100,96,86,0.00,40.00,3,1,7,0.00
2012-12-17,29.0,24.4,21.0,27.0,24.2,21.0,100,99,86,0.00,40.00,5,2,11,0.00
2012-12-18,22.0,16.7,10.0,22.0,16.0,9.0,100,97,86,0.00,40.00,5,1,9,0.00
2012-12-19,11.0,4.7,-2.0,9.0,0.9,-5.0,96,84,60,0.00,40.00,7,1,13,0.00
2012-12-20,23.0,15.2,2.0,17.0,7.8,-4.0,91,72,55,0.00,40.00,5,2,7,0.00
2012-12-21,30.0,24.6,19.0,11.0,6.7,1.0,64,47,29,0.00,40.00,5,2,9,0.00
2012-12-22,33.0,28.0,23.0,12.0,4.2,-1.0,51,36,27,0.00,40.00,4,2,15,0.00
2012-12-23,32.0,25.2,20.0,26.0,21.0,14.0,100,85,54,0.00,40.00,3,1,8,0.00
2012-12-24,26.0,20.2,11.0,26.0,18.9,7.0,100,95,84,0.00,40.00,8,2,17,0.00
2012-12-25,21.0,13.9,9.0,14.0,9.8,6.0,95,84,58,0.00,40.00,5,2,10,0.00
2012-12-26,18.0,15.9,13.0,18.0,14.6,6.0,100,94,60,0.00,40.00,4,1,8,0.00
2012-12-27,15.0,13.3,12.0,14.0,10.5,8.0,94,88,82,0.00,40.00,5,3,14,0.00
2012-12-28,17.0,11.8,5.0,15.0,9.8,3.0,98,91,80,0.00,40.00,3,1,8,0.00
2012-12-29,21.0,13.1,7.0,13.0,8.1,5.0,95,81,56,0.00,40.00,5,2,8,0.00
2012-12-30,19.0,12.8,4.0,16.0,10.4,1.0,96,90,81,0.00,40.00,3,1,5,0.00
2012-12-31,13.0,5.1,-1.0,10.0,3.4,-3.0,98,93,88,0.00,40.00,3,0,7,0.00